createdAt,value
2017-08-22T00:00:39.300Z,6.03
2017-08-22T00:05:47.262Z,6.73
2017-08-22T00:10:53.191Z,6.93
2017-08-22T00:16:00.330Z,9.87
2017-08-22T00:21:05.647Z,7.93
2017-08-22T00:26:10.684Z,6.30
2017-08-22T00:31:16.941Z,5.57
2017-08-22T00:36:21.089Z,5.83
2017-08-22T00:41:26.445Z,7.07
2017-08-22T00:46:30.506Z,5.63
2017-08-22T00:51:36.403Z,5.90
2017-08-22T00:56:39.726Z,5.93
2017-08-22T01:01:42.050Z,5.60
2017-08-22T01:06:44.401Z,6.70
2017-08-22T01:11:46.816Z,6.53
2017-08-22T01:16:49.244Z,6.17
2017-08-22T01:21:51.649Z,6.63
2017-08-22T01:26:53.985Z,6.40
2017-08-22T01:31:56.379Z,5.30
2017-08-22T01:36:58.933Z,5.73
2017-08-22T01:42:01.366Z,5.97
2017-08-22T01:47:03.737Z,7.00
2017-08-22T01:52:06.098Z,6.03
2017-08-22T01:57:08.493Z,6.50
2017-08-22T02:02:47.370Z,5.70
2017-08-22T02:07:49.553Z,5.80
2017-08-22T02:12:51.938Z,6.70
2017-08-22T02:17:54.168Z,5.23
2017-08-22T02:22:56.573Z,8.10
2017-08-22T02:27:58.880Z,6.40
2017-08-22T02:33:01.301Z,5.73
2017-08-22T02:38:03.514Z,6.40
2017-08-22T02:43:05.993Z,6.13
2017-08-22T02:48:08.247Z,6.23
2017-08-22T02:53:10.561Z,6.10
2017-08-22T02:58:13.525Z,6.30
2017-08-22T03:03:15.774Z,6.47
2017-08-22T03:08:18.203Z,6.33
2017-08-22T03:13:20.541Z,5.20
2017-08-22T03:18:22.883Z,5.80
2017-08-22T03:23:25.202Z,5.60
2017-08-22T03:28:27.645Z,5.87
2017-08-22T03:33:30.079Z,5.40
2017-08-22T03:38:32.417Z,6.10
2017-08-22T03:43:34.673Z,7.70
2017-08-22T03:48:36.861Z,7.27
2017-08-22T03:53:39.128Z,6.60
2017-08-22T03:58:41.465Z,7.43
2017-08-22T04:08:46.625Z,6.87
2017-08-22T04:13:49.052Z,7.30
2017-08-22T04:18:51.333Z,6.40
2017-08-22T04:23:53.712Z,7.37
2017-08-22T04:28:56.114Z,7.43
2017-08-22T04:33:58.490Z,7.50
2017-08-22T04:39:00.967Z,6.80
2017-08-22T04:44:03.344Z,6.37
2017-08-22T04:49:05.618Z,6.47
2017-08-22T04:54:07.956Z,7.20
2017-08-22T04:59:10.314Z,7.60
2017-08-22T05:04:12.545Z,8.60
2017-08-22T05:09:14.978Z,7.50
2017-08-22T05:14:17.266Z,7.23
2017-08-22T05:19:20.335Z,7.60
2017-08-22T05:24:22.660Z,7.90
2017-08-22T05:29:24.996Z,6.43
2017-08-22T05:34:27.229Z,6.80
2017-08-22T05:39:30.550Z,7.30
2017-08-22T05:44:32.797Z,7.07
2017-08-22T05:49:35.730Z,7.37
2017-08-22T05:54:38.161Z,6.50
2017-08-22T05:59:43.766Z,7.80
2017-08-22T06:04:51.794Z,7.80
2017-08-22T06:09:54.568Z,7.80
2017-08-22T06:15:00.651Z,7.87
2017-08-22T06:20:08.421Z,10.60
2017-08-22T06:25:16.153Z,9.00
2017-08-22T06:30:19.840Z,10.03
2017-08-22T06:35:24.532Z,10.60
2017-08-22T06:40:29.861Z,9.87
2017-08-22T06:45:37.317Z,9.90
2017-08-22T06:50:40.226Z,10.13
2017-08-22T06:55:42.440Z,9.90
2017-08-22T07:00:44.703Z,10.37
2017-08-22T07:05:47.048Z,9.23
2017-08-22T07:10:49.428Z,10.73
2017-08-22T07:15:51.665Z,10.43
2017-08-22T07:20:53.963Z,9.47
2017-08-22T07:31:05.551Z,9.80
2017-08-22T07:36:07.865Z,9.53
2017-08-22T07:41:10.200Z,9.00
2017-08-22T07:46:12.534Z,7.77
2017-08-22T07:51:14.961Z,7.57
2017-08-22T07:56:17.137Z,6.17
2017-08-22T08:01:19.494Z,6.80
2017-08-22T08:06:21.796Z,4.63
2017-08-22T08:11:24.092Z,7.40
2017-08-22T08:16:26.368Z,5.63
2017-08-22T08:21:28.653Z,5.40
2017-08-22T08:26:30.952Z,5.40
2017-08-22T08:31:33.178Z,6.07
2017-08-22T08:36:35.482Z,6.10
2017-08-22T08:41:37.610Z,5.63
2017-08-22T08:46:40.285Z,6.10
2017-08-22T08:51:42.725Z,5.63
2017-08-22T08:56:45.068Z,4.93
2017-08-22T09:01:47.281Z,5.07
2017-08-22T09:06:49.678Z,4.30
2017-08-22T09:11:52.000Z,3.63
2017-08-22T09:16:54.461Z,3.47
2017-08-22T09:21:56.795Z,3.30
2017-08-22T09:26:59.124Z,3.10
2017-08-22T09:32:01.410Z,0.90
2017-08-22T09:37:03.942Z,2.63
2017-08-22T09:42:06.387Z,2.27
2017-08-22T09:47:08.718Z,1.80
2017-08-22T09:52:10.899Z,1.70
2017-08-22T09:57:14.649Z,1.87
2017-08-22T10:02:18.500Z,1.37
2017-08-22T10:07:20.679Z,1.20
2017-08-22T10:12:22.960Z,1.50
2017-08-22T10:17:25.274Z,2.10
2017-08-22T10:22:27.579Z,1.53
2017-08-22T10:27:29.897Z,1.20
2017-08-22T10:32:32.324Z,1.50
2017-08-22T10:37:34.582Z,1.50
2017-08-22T10:42:36.908Z,1.30
2017-08-22T10:47:39.147Z,1.20
2017-08-22T10:52:42.420Z,1.50
2017-08-22T10:57:46.490Z,1.37
2017-08-22T11:02:48.734Z,1.57
2017-08-22T11:07:50.975Z,1.57
2017-08-22T11:12:53.307Z,1.33
2017-08-22T11:17:55.476Z,1.20
2017-08-22T11:22:57.728Z,1.10
2017-08-22T11:28:00.080Z,1.23
2017-08-22T11:33:02.071Z,1.53
2017-08-22T11:38:04.278Z,1.47
2017-08-22T11:43:06.593Z,1.47
2017-08-22T11:48:08.784Z,1.30
2017-08-22T11:53:12.939Z,1.07
2017-08-22T11:58:18.722Z,1.30
2017-08-22T12:03:21.551Z,1.00
2017-08-22T12:08:23.742Z,1.00
2017-08-22T12:13:26.336Z,1.00
2017-08-22T12:18:28.720Z,1.13
2017-08-22T12:23:31.147Z,1.00
2017-08-22T12:28:33.361Z,0.90
2017-08-22T12:33:35.700Z,1.13
2017-08-22T12:38:38.789Z,1.27
2017-08-22T12:43:40.995Z,1.20
2017-08-22T12:48:43.357Z,1.33
2017-08-22T12:53:46.218Z,1.33
2017-08-22T12:58:48.534Z,1.20
2017-08-22T13:03:50.896Z,1.40
2017-08-22T13:08:53.138Z,1.20
2017-08-22T13:13:55.606Z,1.03
2017-08-22T13:18:57.942Z,1.63
2017-08-22T13:24:00.147Z,1.17
2017-08-22T13:29:02.416Z,1.43
2017-08-22T13:34:04.800Z,1.70
2017-08-22T13:39:07.136Z,1.30
2017-08-22T13:44:09.571Z,1.67
2017-08-22T13:49:11.903Z,1.23
2017-08-22T13:54:14.254Z,1.30
2017-08-22T13:59:16.478Z,1.20
2017-08-22T14:04:18.751Z,1.20
2017-08-22T14:09:21.062Z,1.30
2017-08-22T14:14:23.356Z,1.30
2017-08-22T14:19:25.676Z,1.60
2017-08-22T14:24:27.928Z,1.30
2017-08-22T14:29:30.196Z,1.33
2017-08-22T14:34:32.376Z,1.57
2017-08-22T14:39:34.602Z,1.57
2017-08-22T14:44:36.920Z,1.37
2017-08-22T14:49:39.197Z,1.30
2017-08-22T14:54:41.490Z,1.10
2017-08-22T14:59:43.717Z,1.20
2017-08-22T15:04:46.789Z,1.67
2017-08-22T15:09:49.200Z,1.60
2017-08-22T15:14:51.442Z,1.60
2017-08-22T15:19:53.643Z,1.50
2017-08-22T15:24:55.994Z,1.97
2017-08-22T15:29:58.329Z,2.20
2017-08-22T15:35:00.657Z,1.53
2017-08-22T15:40:03.060Z,1.60
2017-08-22T15:45:05.381Z,2.83
2017-08-22T15:50:07.648Z,3.10
2017-08-22T15:55:09.812Z,2.20
2017-08-22T16:00:12.044Z,1.80
2017-08-22T16:05:14.339Z,1.93
2017-08-22T16:10:16.664Z,2.07
2017-08-22T16:15:18.935Z,2.27
2017-08-22T16:20:21.123Z,2.60
2017-08-22T16:25:23.307Z,2.00
2017-08-22T16:30:25.642Z,2.17
2017-08-22T16:35:27.930Z,3.20
2017-08-22T16:40:30.247Z,2.13
2017-08-22T16:45:33.879Z,2.40
2017-08-22T16:50:36.240Z,2.00
2017-08-22T16:55:38.496Z,2.37
2017-08-22T17:00:40.815Z,2.30
2017-08-22T17:05:43.174Z,1.57
2017-08-22T17:10:45.520Z,2.40
2017-08-22T17:15:47.872Z,2.30
2017-08-22T17:20:50.249Z,1.90
2017-08-22T17:25:52.691Z,2.07
2017-08-22T17:30:55.075Z,2.47
2017-08-22T17:35:57.463Z,2.50
2017-08-22T17:40:59.841Z,2.30
2017-08-22T17:46:02.120Z,2.50
2017-08-22T17:51:04.530Z,2.17
2017-08-22T17:56:06.797Z,2.10
2017-08-22T18:01:09.389Z,1.83
2017-08-22T18:06:11.646Z,2.03
2017-08-22T18:11:14.054Z,2.10
2017-08-22T18:16:16.264Z,1.93
2017-08-22T18:21:18.518Z,2.50
2017-08-22T18:26:22.024Z,2.77
2017-08-22T18:31:24.489Z,2.30
2017-08-22T18:36:26.797Z,2.90
2017-08-22T18:41:29.200Z,2.37
2017-08-22T18:46:31.525Z,2.30
2017-08-22T18:51:33.862Z,2.30
2017-08-22T18:56:36.156Z,2.60
2017-08-22T19:01:38.398Z,2.37
2017-08-22T19:06:40.784Z,3.13
2017-08-22T19:11:43.179Z,3.60
2017-08-22T19:16:47.461Z,10.27
2017-08-22T19:21:51.081Z,5.00
2017-08-22T19:26:54.651Z,3.40
2017-08-22T19:31:57.096Z,3.17
2017-08-22T19:36:59.369Z,3.70
2017-08-22T19:42:01.748Z,3.43
2017-08-22T19:47:05.453Z,3.20
2017-08-22T19:52:07.911Z,3.10
2017-08-22T19:57:17.125Z,3.47
2017-08-22T20:02:19.348Z,3.47
2017-08-22T20:07:21.546Z,3.40
2017-08-22T20:12:23.932Z,3.03
2017-08-22T20:17:26.143Z,4.10
2017-08-22T20:22:28.427Z,3.40
2017-08-22T20:27:30.796Z,2.90
2017-08-22T20:32:34.352Z,3.70
2017-08-22T20:37:36.515Z,3.50
2017-08-22T20:42:38.714Z,3.57
2017-08-22T20:47:40.929Z,3.93
2017-08-22T20:52:43.209Z,3.23
2017-08-22T20:57:45.450Z,3.53
2017-08-22T21:02:47.745Z,3.30
2017-08-22T21:07:49.988Z,3.30
2017-08-22T21:12:52.265Z,3.10
2017-08-22T21:17:54.494Z,3.47
2017-08-22T21:22:56.829Z,4.00
2017-08-22T21:27:59.245Z,3.90
2017-08-22T21:33:01.516Z,3.13
2017-08-22T21:38:03.882Z,3.87
2017-08-22T21:43:06.230Z,3.43
2017-08-22T21:48:08.426Z,3.50
2017-08-22T21:53:10.850Z,3.60
2017-08-22T21:58:13.050Z,3.67
2017-08-22T22:03:15.443Z,3.70
2017-08-22T22:08:17.970Z,3.50
2017-08-22T22:13:20.329Z,3.87
2017-08-22T22:18:22.521Z,3.90
2017-08-22T22:23:24.893Z,4.27
2017-08-22T22:28:27.185Z,4.47
2017-08-22T22:33:29.581Z,4.60
2017-08-22T22:38:36.299Z,4.80
2017-08-22T22:43:38.517Z,4.37
2017-08-22T22:48:40.921Z,5.10
2017-08-22T22:53:43.125Z,4.70
2017-08-22T22:58:45.644Z,4.93
2017-08-22T23:03:48.276Z,4.70
2017-08-22T23:08:50.835Z,4.73
2017-08-22T23:13:52.988Z,4.53
2017-08-22T23:18:55.517Z,4.67
2017-08-22T23:23:57.850Z,4.83
2017-08-22T23:29:00.484Z,6.03
2017-08-22T23:34:02.936Z,5.33
2017-08-22T23:39:05.332Z,5.20
2017-08-22T23:44:07.768Z,5.37
2017-08-22T23:49:10.147Z,5.70
2017-08-22T23:54:12.482Z,5.30
2017-08-22T23:59:14.860Z,5.53
